createdAt,value
2022-12-01T00:00:07.991Z,53.6
2022-12-01T00:03:08.142Z,53.4
2022-12-01T00:06:08.051Z,51.5
2022-12-01T00:09:08.046Z,53
2022-12-01T00:12:08.060Z,51.9
2022-12-01T00:15:08.102Z,53
2022-12-01T00:18:08.090Z,52.2
2022-12-01T00:21:08.110Z,51.5
2022-12-01T00:24:08.112Z,50.9
2022-12-01T00:27:08.132Z,50.7
2022-12-01T00:30:08.156Z,51.3
2022-12-01T00:33:08.193Z,51.9
2022-12-01T00:36:08.188Z,51.3
2022-12-01T00:39:08.201Z,48.6
2022-12-01T00:42:13.001Z,47.9
2022-12-01T00:45:08.225Z,46.7
2022-12-01T00:48:08.243Z,48.3
2022-12-01T00:51:08.301Z,48.1
2022-12-01T00:54:08.270Z,48.3
2022-12-01T00:57:08.289Z,49.1
2022-12-01T01:00:08.316Z,48.7
2022-12-01T01:03:08.325Z,49.3
2022-12-01T01:06:08.361Z,48.4
2022-12-01T01:09:08.386Z,48
2022-12-01T01:12:08.376Z,47.8
2022-12-01T01:15:08.385Z,49.9
2022-12-01T01:18:08.402Z,50.4
2022-12-01T01:21:08.440Z,49.3
2022-12-01T01:24:08.435Z,50.2
2022-12-01T01:27:08.484Z,49.6
2022-12-01T01:30:08.468Z,49.6
2022-12-01T01:33:08.495Z,49.1
2022-12-01T01:36:08.517Z,49.9
2022-12-01T01:39:08.523Z,50.6
2022-12-01T01:42:08.570Z,50.4
2022-12-01T01:45:08.598Z,50.3
2022-12-01T01:48:08.571Z,51.2
2022-12-01T01:51:08.586Z,49.5
2022-12-01T01:54:08.574Z,49.8
2022-12-01T01:57:08.607Z,47.4
2022-12-01T02:00:08.608Z,47.6
2022-12-01T02:03:08.633Z,48.8
2022-12-01T02:06:08.632Z,49
2022-12-01T02:09:08.608Z,46.8
2022-12-01T02:12:08.615Z,46.1
2022-12-01T02:15:08.620Z,45.7
2022-12-01T02:18:08.612Z,45.9
2022-12-01T02:21:08.641Z,45.3
2022-12-01T02:24:08.613Z,45.6
2022-12-01T02:27:08.617Z,45.2
2022-12-01T02:30:08.613Z,44.2
2022-12-01T02:33:08.614Z,44
2022-12-01T02:36:08.630Z,43
2022-12-01T02:39:08.638Z,42
2022-12-01T02:42:08.616Z,41.9
2022-12-01T02:45:08.619Z,41.3
2022-12-01T02:48:08.626Z,38.9
2022-12-01T02:51:08.632Z,38.1
2022-12-01T02:54:08.624Z,39.2
2022-12-01T02:57:08.645Z,40.3
2022-12-01T03:00:08.622Z,40.8
2022-12-01T03:03:08.620Z,42.1
2022-12-01T03:06:08.650Z,43.3
2022-12-01T03:09:08.625Z,41.5
2022-12-01T03:12:08.625Z,40.7
2022-12-01T03:15:08.663Z,41.6
2022-12-01T03:18:08.631Z,40.3
2022-12-01T03:21:08.640Z,40.4
2022-12-01T03:24:08.630Z,39.3
2022-12-01T03:27:08.634Z,39.8
2022-12-01T03:30:08.637Z,38.6
2022-12-01T03:33:08.666Z,38
2022-12-01T03:36:08.654Z,36.6
2022-12-01T03:39:08.644Z,36.1
2022-12-01T03:42:08.647Z,36.2
2022-12-01T03:45:08.655Z,36.3
2022-12-01T03:48:08.658Z,36.2
2022-12-01T03:51:08.700Z,35.8
2022-12-01T03:54:08.659Z,35.7
2022-12-01T03:57:08.665Z,38.1
2022-12-01T04:00:08.666Z,41.6
2022-12-01T04:03:08.721Z,41.7
2022-12-01T04:06:08.694Z,41.9
2022-12-01T04:09:08.710Z,41
2022-12-01T04:12:08.681Z,39.1
2022-12-01T04:15:08.691Z,38.2
2022-12-01T04:18:08.687Z,37.4
2022-12-01T04:21:08.700Z,35.6
2022-12-01T04:24:08.693Z,35.9
2022-12-01T04:27:08.719Z,36.5
2022-12-01T04:30:08.699Z,39.3
2022-12-01T04:33:08.703Z,40.8
2022-12-01T04:36:08.715Z,40.4
2022-12-01T04:39:08.709Z,38.5
2022-12-01T04:42:08.715Z,39
2022-12-01T04:45:08.750Z,36.6
2022-12-01T04:48:08.721Z,39.2
2022-12-01T04:51:08.739Z,39.3
2022-12-01T04:54:08.728Z,39.7
2022-12-01T04:57:08.735Z,39.6
2022-12-01T05:00:08.748Z,40.1
2022-12-01T05:03:13.649Z,40.7
2022-12-01T05:06:08.775Z,40
2022-12-01T05:09:11.219Z,39.8
2022-12-01T05:12:08.769Z,39.6
2022-12-01T05:15:08.773Z,38.9
2022-12-01T05:18:08.775Z,39.9
2022-12-01T05:21:08.819Z,39.8
2022-12-01T05:24:08.787Z,38.9
2022-12-01T05:27:08.797Z,39.9
2022-12-01T05:30:08.801Z,40.8
2022-12-01T05:33:08.812Z,40.1
2022-12-01T05:36:08.826Z,38.3
2022-12-01T05:39:08.852Z,38.6
2022-12-01T05:42:08.826Z,38.7
2022-12-01T05:45:08.838Z,39.5
2022-12-01T05:48:08.845Z,40.8
2022-12-01T05:51:08.863Z,40.4
2022-12-01T05:54:08.863Z,41.3
2022-12-01T05:57:08.893Z,41.7
2022-12-01T06:00:08.883Z,42.3
2022-12-01T06:03:08.881Z,43.4
2022-12-01T06:06:09.056Z,44.2
2022-12-01T06:09:08.898Z,43.6
2022-12-01T06:12:08.903Z,44.4
2022-12-01T06:15:08.937Z,43.7
2022-12-01T06:18:08.923Z,44.3
2022-12-01T06:21:08.932Z,43.9
2022-12-01T06:24:08.940Z,43.5
2022-12-01T06:27:08.943Z,44
2022-12-01T06:30:08.979Z,45.2
2022-12-01T06:33:08.981Z,45
2022-12-01T06:36:08.962Z,46.1
2022-12-01T06:39:08.968Z,44.9
2022-12-01T06:42:08.972Z,46.5
2022-12-01T06:45:09.008Z,46.6
2022-12-01T06:48:08.991Z,46.4
2022-12-01T06:51:10.910Z,49
2022-12-01T06:54:09.003Z,47.9
2022-12-01T06:57:09.001Z,50.7
2022-12-01T07:00:09.114Z,50.9
2022-12-01T07:03:09.022Z,50.2
2022-12-01T07:06:09.019Z,46.8
2022-12-01T07:09:09.053Z,44.2
2022-12-01T07:12:09.043Z,44.4
2022-12-01T07:15:09.058Z,42.7
2022-12-01T07:18:09.047Z,39.2
2022-12-01T07:21:09.053Z,38.1
2022-12-01T07:24:09.059Z,39.3
2022-12-01T07:27:09.092Z,40.2
2022-12-01T07:30:09.066Z,40.6
2022-12-01T07:33:09.060Z,41.4
2022-12-01T07:36:09.072Z,42.7
2022-12-01T07:39:09.074Z,41
2022-12-01T07:42:09.077Z,40.8
2022-12-01T07:45:09.106Z,39
2022-12-01T07:48:09.074Z,36.8
2022-12-01T07:51:09.075Z,35.5
2022-12-01T07:54:09.080Z,34.6
2022-12-01T07:57:09.085Z,34
2022-12-01T08:00:09.085Z,34.6
2022-12-01T08:03:09.196Z,33.1
2022-12-01T08:06:09.083Z,32.9
2022-12-01T08:09:09.086Z,33.4
2022-12-01T08:12:09.088Z,31.7
2022-12-01T08:15:09.124Z,30.3
2022-12-01T08:18:09.118Z,30.8
2022-12-01T08:21:09.155Z,30.6
2022-12-01T08:24:09.126Z,30.4
2022-12-01T08:27:09.129Z,29.6
2022-12-01T08:30:09.140Z,30.4
2022-12-01T08:33:09.152Z,30.6
2022-12-01T08:36:09.179Z,29.1
2022-12-01T08:39:09.202Z,29.3
2022-12-01T08:42:09.189Z,29.9
2022-12-01T08:45:09.198Z,30.1
2022-12-01T08:48:09.207Z,30.3
2022-12-01T08:51:09.218Z,30.1
2022-12-01T08:54:09.237Z,30.5
2022-12-01T08:57:09.283Z,31
2022-12-01T09:00:09.257Z,31.7
2022-12-01T09:03:09.305Z,31.2
2022-12-01T09:06:09.282Z,30.8
2022-12-01T09:09:09.299Z,31
2022-12-01T09:12:09.311Z,32.2
2022-12-01T09:15:09.355Z,31.4
2022-12-01T09:18:09.333Z,31.4
2022-12-01T09:21:09.353Z,31.5
2022-12-01T09:24:09.362Z,32
2022-12-01T09:27:09.408Z,31.8
2022-12-01T09:30:09.387Z,32.5
2022-12-01T09:33:09.429Z,32.6
2022-12-01T09:36:09.418Z,33.5
2022-12-01T09:39:09.434Z,32.2
2022-12-01T09:42:09.629Z,33
2022-12-01T09:45:09.475Z,31.5
2022-12-01T09:48:09.491Z,31.5
2022-12-01T09:51:09.529Z,31.6
2022-12-01T09:54:09.514Z,32.1
2022-12-01T09:57:09.529Z,33.6
2022-12-01T10:00:09.559Z,32
2022-12-01T10:03:09.564Z,31.8
2022-12-01T10:06:26.501Z,30.8
2022-12-01T10:09:09.619Z,31.4
2022-12-01T10:12:09.603Z,31
2022-12-01T10:15:09.619Z,29.9
2022-12-01T10:18:09.643Z,30.5
2022-12-01T10:21:09.656Z,31.3
2022-12-01T10:24:09.675Z,31.4
2022-12-01T10:27:09.727Z,31.7
2022-12-01T10:30:09.713Z,31.9
2022-12-01T10:33:09.724Z,31.9
2022-12-01T10:36:09.746Z,31.2
2022-12-01T10:39:09.782Z,30.3
2022-12-01T10:42:09.776Z,32.1
2022-12-01T10:45:09.818Z,31.7
2022-12-01T10:48:09.808Z,31.2
2022-12-01T10:51:09.824Z,30.9
2022-12-01T10:54:09.836Z,30.5
2022-12-01T10:57:09.855Z,31
2022-12-01T11:00:09.877Z,30.5
2022-12-01T11:03:10.105Z,31.2
2022-12-01T11:06:09.909Z,31.6
2022-12-01T11:09:09.930Z,32.2
2022-12-01T11:12:09.942Z,31.9
2022-12-01T11:15:09.954Z,31.6
2022-12-01T11:18:09.979Z,31.2
2022-12-01T11:21:10.036Z,31.4
2022-12-01T11:24:10.012Z,32.3
2022-12-01T11:27:10.037Z,33.6
2022-12-01T11:30:10.053Z,34.4
2022-12-01T11:33:10.072Z,33.7
2022-12-01T11:36:14.694Z,34.4
2022-12-01T11:39:10.189Z,33.3
2022-12-01T11:42:10.127Z,33.2
2022-12-01T11:45:10.152Z,32.6
2022-12-01T11:48:10.168Z,33.2
2022-12-01T11:51:10.182Z,34.3
2022-12-01T11:54:10.198Z,35.8
2022-12-01T11:57:32.982Z,37
2022-12-01T12:00:10.233Z,36.7
2022-12-01T12:03:10.417Z,36.3
2022-12-01T12:09:10.356Z,37
2022-12-01T12:12:10.315Z,37.6
2022-12-01T12:15:10.385Z,37.9
2022-12-01T12:18:10.403Z,38.6
2022-12-01T12:21:10.380Z,38.8
2022-12-01T12:24:10.390Z,38.7
2022-12-01T12:27:10.406Z,38.2
2022-12-01T12:30:10.421Z,37.1
2022-12-01T12:33:10.464Z,36.5
2022-12-01T12:36:10.450Z,36.4
2022-12-01T12:39:15.051Z,36.9
2022-12-01T12:42:10.487Z,36.9
2022-12-01T12:45:10.501Z,36.7
2022-12-01T12:48:10.520Z,37.8
2022-12-01T12:51:10.665Z,39
2022-12-01T12:54:10.561Z,38.3
2022-12-01T12:57:10.562Z,38.9
2022-12-01T13:00:10.577Z,38.4
2022-12-01T13:03:10.671Z,39.2
2022-12-01T13:06:10.612Z,38.1
2022-12-01T13:09:10.657Z,38.3
2022-12-01T13:12:10.638Z,38.3
2022-12-01T13:15:10.656Z,37.7
2022-12-01T13:18:10.671Z,36.6
2022-12-01T13:21:10.691Z,36.2
2022-12-01T13:24:10.714Z,37.1
2022-12-01T13:27:10.775Z,37.3
2022-12-01T13:30:10.809Z,38.3
2022-12-01T13:33:10.756Z,37.2
2022-12-01T13:39:10.793Z,37.3
2022-12-01T13:42:10.810Z,39.9
2022-12-01T13:45:10.873Z,39.3
2022-12-01T13:48:10.848Z,38
2022-12-01T13:51:10.862Z,38.6
2022-12-01T13:54:10.882Z,39.8
2022-12-01T13:57:10.906Z,39.8
2022-12-01T14:00:10.933Z,36.8
2022-12-01T14:03:11.025Z,38.7
2022-12-01T14:06:10.961Z,37.1
2022-12-01T14:09:10.982Z,37.1
2022-12-01T14:12:11.008Z,37.1
2022-12-01T14:15:11.023Z,35.7
2022-12-01T14:18:11.046Z,36.5
2022-12-01T14:21:11.094Z,37.5
2022-12-01T14:24:11.081Z,37.6
2022-12-01T14:27:11.094Z,38.1
2022-12-01T14:30:11.194Z,37.2
2022-12-01T14:33:11.133Z,36.3
2022-12-01T14:36:11.173Z,35.6
2022-12-01T14:39:11.192Z,35.8
2022-12-01T14:42:11.192Z,36.4
2022-12-01T14:45:11.301Z,36.1
2022-12-01T14:48:11.234Z,36.3
2022-12-01T14:51:11.249Z,36.3
2022-12-01T14:54:11.262Z,36.5
2022-12-01T14:57:16.485Z,37
2022-12-01T15:00:11.317Z,37.1
2022-12-01T15:03:11.329Z,35.6
2022-12-01T15:06:11.357Z,36.2
2022-12-01T15:09:32.629Z,36.5
2022-12-01T15:12:11.394Z,39.5
2022-12-01T15:15:11.454Z,41.3
2022-12-01T15:18:11.442Z,40.3
2022-12-01T15:21:11.489Z,40.9
2022-12-01T15:24:11.485Z,41.9
2022-12-01T15:27:11.509Z,41.2
2022-12-01T15:30:11.537Z,41.8
2022-12-01T15:33:11.587Z,41.8
2022-12-01T15:36:11.575Z,40.5
2022-12-01T15:39:11.592Z,40.9
2022-12-01T15:42:11.623Z,41
2022-12-01T15:45:11.645Z,39.5
2022-12-01T15:48:11.675Z,39.2
2022-12-01T15:51:11.718Z,39
2022-12-01T15:54:11.720Z,38.3
2022-12-01T15:57:11.742Z,39.4
2022-12-01T16:00:11.756Z,38.1
2022-12-01T16:03:12.128Z,38.5
2022-12-01T16:06:11.802Z,37.9
2022-12-01T16:09:11.858Z,38.2
2022-12-01T16:12:11.855Z,38.4
2022-12-01T16:15:11.883Z,36.5
2022-12-01T16:18:11.905Z,38.1
2022-12-01T16:21:11.929Z,37.1
2022-12-01T16:24:11.952Z,36.7
2022-12-01T16:27:11.994Z,36.3
2022-12-01T16:30:12.001Z,35.7
2022-12-01T16:33:12.027Z,34.8
2022-12-01T16:36:12.052Z,35
2022-12-01T16:39:12.078Z,35.1
2022-12-01T16:42:12.221Z,35.8
2022-12-01T16:45:12.150Z,34.9
2022-12-01T16:48:12.154Z,35.3
2022-12-01T16:51:12.601Z,35.3
2022-12-01T16:54:12.203Z,36.3
2022-12-01T16:57:12.234Z,34.9
2022-12-01T17:00:12.258Z,35.1
2022-12-01T17:03:12.309Z,35.8
2022-12-01T17:06:12.301Z,36.4
2022-12-01T17:09:12.326Z,37.7
2022-12-01T17:12:12.352Z,37.4
2022-12-01T17:15:12.372Z,38.3
2022-12-01T17:18:12.391Z,37.7
2022-12-01T17:21:12.436Z,38.5
2022-12-01T17:24:16.217Z,39.1
2022-12-01T17:27:12.455Z,38.6
2022-12-01T17:30:12.479Z,40.1
2022-12-01T17:33:12.505Z,39.6
2022-12-01T17:36:12.528Z,41.3
2022-12-01T17:39:12.575Z,40.5
2022-12-01T17:42:12.575Z,38.6
2022-12-01T17:45:12.595Z,40.3
2022-12-01T17:48:12.613Z,40.5
2022-12-01T17:51:12.632Z,40.9
2022-12-01T17:54:12.640Z,41.2
2022-12-01T17:57:12.661Z,41.2
2022-12-01T18:00:12.640Z,41.3
2022-12-01T18:03:12.704Z,40.6
2022-12-01T18:06:12.668Z,41.7
2022-12-01T18:09:12.650Z,42.2
2022-12-01T18:12:12.657Z,41.9
2022-12-01T18:15:12.681Z,40.6
2022-12-01T18:18:12.670Z,41.2
2022-12-01T18:21:12.670Z,41.7
2022-12-01T18:24:12.673Z,42.2
2022-12-01T18:27:12.669Z,43.4
2022-12-01T18:30:12.669Z,42.3
2022-12-01T18:33:12.703Z,42.5
2022-12-01T18:36:12.675Z,43.6
2022-12-01T18:39:12.679Z,41.9
2022-12-01T18:42:12.684Z,43.6
2022-12-01T18:45:15.404Z,44.4
2022-12-01T18:48:12.684Z,44.5
2022-12-01T18:51:12.711Z,45.7
2022-12-01T18:54:12.685Z,45.2
2022-12-01T18:57:12.692Z,47.2
2022-12-01T19:00:12.703Z,49.5
2022-12-01T19:03:12.699Z,48
2022-12-01T19:06:12.700Z,48.2
2022-12-01T19:09:12.729Z,47.9
2022-12-01T19:12:12.707Z,49.3
2022-12-01T19:15:12.704Z,48.7
2022-12-01T19:18:12.708Z,48.7
2022-12-01T19:21:12.711Z,49.3
2022-12-01T19:24:12.709Z,49.9
2022-12-01T19:27:12.738Z,50.2
2022-12-01T19:30:12.715Z,49.4
2022-12-01T19:33:12.716Z,49.6
2022-12-01T19:36:12.725Z,49.8
2022-12-01T19:39:12.724Z,51.4
2022-12-01T19:42:12.722Z,51.6
2022-12-01T19:45:12.751Z,53.4
2022-12-01T19:48:12.732Z,53.8
2022-12-01T19:51:12.731Z,54.3
2022-12-01T19:54:12.732Z,54.4
2022-12-01T19:57:12.734Z,54.1
2022-12-01T20:00:12.734Z,54.1
2022-12-01T20:03:12.765Z,55.5
2022-12-01T20:06:12.738Z,55.9
2022-12-01T20:09:12.741Z,55.6
2022-12-01T20:12:12.790Z,53.6
2022-12-01T20:15:12.746Z,53.9
2022-12-01T20:18:12.746Z,56.6
2022-12-01T20:21:12.775Z,57.3
2022-12-01T20:24:12.747Z,57.3
2022-12-01T20:27:12.754Z,57.3
2022-12-01T20:30:12.752Z,57.1
2022-12-01T20:33:12.757Z,58.3
2022-12-01T20:36:12.856Z,57.4
2022-12-01T20:39:12.787Z,57.6
2022-12-01T20:42:12.766Z,58.6
2022-12-01T20:45:12.765Z,58.8
2022-12-01T20:48:12.765Z,58.9
2022-12-01T20:51:12.764Z,57.3
2022-12-01T20:54:27.662Z,57.4
2022-12-01T20:57:12.794Z,58.8
2022-12-01T21:00:12.771Z,58.6
2022-12-01T21:03:12.773Z,58.8
2022-12-01T21:06:12.775Z,57.9
2022-12-01T21:09:12.780Z,59.2
2022-12-01T21:12:12.782Z,59.2
2022-12-01T21:15:12.809Z,57.8
2022-12-01T21:18:12.781Z,58.2
2022-12-01T21:21:12.785Z,58.8
2022-12-01T21:24:12.788Z,56.3
2022-12-01T21:27:12.781Z,53.8
2022-12-01T21:30:12.786Z,55.5
2022-12-01T21:33:12.813Z,53.9
2022-12-01T21:36:12.794Z,53.4
2022-12-01T21:39:12.802Z,50.9
2022-12-01T21:42:12.796Z,51.6
2022-12-01T21:45:12.799Z,50.8
2022-12-01T21:48:12.802Z,49.6
2022-12-01T21:51:12.824Z,50.5
2022-12-01T21:54:12.801Z,51.7
2022-12-01T21:57:12.800Z,51
2022-12-01T22:00:12.802Z,50.3
2022-12-01T22:03:12.806Z,51.4
2022-12-01T22:06:32.743Z,51.2
2022-12-01T22:09:12.835Z,50.4
2022-12-01T22:12:12.819Z,50.4
2022-12-01T22:15:12.814Z,51
2022-12-01T22:18:12.819Z,51.6
2022-12-01T22:21:12.823Z,51.7
2022-12-01T22:24:12.825Z,50.5
2022-12-01T22:27:12.847Z,50.6
2022-12-01T22:30:12.828Z,50.2
2022-12-01T22:33:12.835Z,50.3
2022-12-01T22:36:12.833Z,49.9
2022-12-01T22:39:12.851Z,50.5
2022-12-01T22:42:12.838Z,49.6
2022-12-01T22:45:12.863Z,50.4
2022-12-01T22:48:12.843Z,50.6
2022-12-01T22:51:12.856Z,50.4
2022-12-01T22:54:12.850Z,49
2022-12-01T22:57:12.860Z,50.1
2022-12-01T23:00:12.853Z,50
2022-12-01T23:03:12.926Z,50.4
2022-12-01T23:06:12.870Z,49.9
2022-12-01T23:09:12.860Z,49.7
2022-12-01T23:12:12.864Z,50.1
2022-12-01T23:15:12.868Z,49.7
2022-12-01T23:18:12.876Z,51
2022-12-01T23:21:12.898Z,49.3
2022-12-01T23:24:12.875Z,49.9
2022-12-01T23:27:12.876Z,50.7
2022-12-01T23:30:12.881Z,49.7
2022-12-01T23:33:12.885Z,49.7
2022-12-01T23:36:12.891Z,50.2
2022-12-01T23:39:12.912Z,48
2022-12-01T23:42:12.888Z,48.8
2022-12-01T23:45:12.892Z,50.1
2022-12-01T23:48:12.896Z,49.8
2022-12-01T23:51:12.903Z,51.4
2022-12-01T23:54:12.900Z,50.7
2022-12-01T23:57:12.925Z,49.8
